Terminal Aerodrome Forecast
Issued by NWS

Home | Current Version | Previous Version | Graphics & Text | Print | Product List | Glossary On
Versions: 1 2 3 4 5 6 7 8 9 10 11 12 13 14 15 16 17
787
FTUS43 KMPX 050520
TAFRWF
TAF
KRWF 050520Z 0506/0606 20006KT P6SM SCT200
     FM051000 15008KT P6SM OVC100
     FM051500 17012G18KT P6SM OVC090
     FM052300 23016G23KT P6SM OVC050=

USA.gov is the U.S. government's official web portal to all federal, state and local government web resources and services.